CFM7 weather

Boyle Airport
Boyle, Alberta, Canada

Public forecast

Using degrees Celsius for public forecast. Weather courtesy of forecast.io.

METAR (pilot weather report)

Closest report is Edmonton (CFB Namao) Heliport, 59.0 nm (109.3 km) SSW. Retrieved 2019/08/24 19:29 UTC (0 seconds ago):

CYED 241929Z AUTO 29007KT 9SM FEW028 FEW035 SCT092 20/13 A2971

TAF (pilot weather forecast)

Forecast is more than 12 hours old.

Closest forecast is Edmonton (CFB Namao) Heliport, 59.0 nm (109.3 km) SSW. Retrieved 2019/08/23 00:33 UTC (2 days ago):

TAF TAF CYED 232330Z 2400/2412 17008KT P6SM FEW080 OVC100 TEMPO 2400/2404 P6SM -SHRA BKN040 OVC080 FM240400 VRB03KT P6SM BKN080 RMK FCST BASED ON AUTO OBS. PCPN SENSORS INOP. NXT FCST BY 240600Z